Estación de Yerbas Buenas 2

Ultimos registro cada 15 minutos 83
Estación Fecha / Hora Temperatura Humedad Lluvia Velocidad Dirección Radiación Presion
83 Yerbas Buenas 2 04-09-2026 20:30 9,9 72,7 0 2,7 206 0,6 1004,3
82 Yerbas Buenas 2 04-09-2026 20:15 10,1 72,4 0 2,3 202 0,6 1004,3
81 Yerbas Buenas 2 04-09-2026 20:00 10,5 70,4 0 2,3 215 0,6 1004,1
80 Yerbas Buenas 2 04-09-2026 19:45 10,6 68,9 0 2,7 209 0,6 1004
79 Yerbas Buenas 2 04-09-2026 19:30 11 68,1 0 2,3 212 0,6 1004
78 Yerbas Buenas 2 04-09-2026 19:15 11,1 67,9 0 2,3 209 0,6 1003,8
77 Yerbas Buenas 2 04-09-2026 19:00 11,7 65,6 0 2,7 204 0,6 1003,6
76 Yerbas Buenas 2 04-09-2026 18:45 12,2 63,1 0 3,3 208 0,6 1003,6
75 Yerbas Buenas 2 04-09-2026 18:30 12,7 62,1 0 3 204 4,4 1003,5
74 Yerbas Buenas 2 04-09-2026 18:15 13,5 57,5 0 3,3 199 15,6 1003,5
73 Yerbas Buenas 2 04-09-2026 18:00 14 55,5 0 3,3 201 45,6 1003,3
72 Yerbas Buenas 2 04-09-2026 17:45 14,4 53,8 0 3 202 98,1 1003,4
71 Yerbas Buenas 2 04-09-2026 17:30 14,7 52,3 0 4,3 198 74,4 1003,3
70 Yerbas Buenas 2 04-09-2026 17:15 15,1 52,2 0 4,3 197 199,4 1003,1
69 Yerbas Buenas 2 04-09-2026 17:00 15,1 51,4 0 4,7 199 245,6 1003,1
68 Yerbas Buenas 2 04-09-2026 16:45 15,5 51,3 0 4,3 198 293,1 1003,1
67 Yerbas Buenas 2 04-09-2026 16:30 15,3 54,8 0 4 205 339,4 1003,2
66 Yerbas Buenas 2 04-09-2026 16:15 15,6 54,4 0 4 206 34,4 1003,2
65 Yerbas Buenas 2 04-09-2026 16:00 15,6 53,6 0 4,7 198 34,4 1003,1
64 Yerbas Buenas 2 04-09-2026 15:45 15,5 53,7 0 4,3 204 141,9 1003,1
63 Yerbas Buenas 2 04-09-2026 15:30 15,8 52,2 0 4,3 197 515,6 1003,2
62 Yerbas Buenas 2 04-09-2026 15:15 15,7 53,5 0 4 204 553,1 1003,3
61 Yerbas Buenas 2 04-09-2026 15:00 15,6 55,1 0 3,7 187 586,9 1003,3
60 Yerbas Buenas 2 04-09-2026 14:45 15,2 58,8 0 3,7 187 615,6 1003,3
59 Yerbas Buenas 2 04-09-2026 14:30 14,6 62,1 0 3,3 190 644,4 1003,6
58 Yerbas Buenas 2 04-09-2026 14:15 13,7 66,1 0 3,3 198 669,4 1003,8
57 Yerbas Buenas 2 04-09-2026 14:00 13,6 70,8 0 3 192 694,4 1003,9
56 Yerbas Buenas 2 04-09-2026 13:45 13,6 67,1 0 2,7 194 708,1 1004,1
55 Yerbas Buenas 2 04-09-2026 13:30 12,8 67,8 0 2,7 192 725,6 1004,4
54 Yerbas Buenas 2 04-09-2026 13:15 12,3 68,1 0 2,3 192 738,1 1004,7
53 Yerbas Buenas 2 04-09-2026 13:00 11,4 71,7 0 2 208 748,1 1004,8
52 Yerbas Buenas 2 04-09-2026 12:45 10,7 78,3 0 2 188 748,1 1005,1
51 Yerbas Buenas 2 04-09-2026 12:30 10,2 75,4 0 1,7 146 753,1 1005,5
50 Yerbas Buenas 2 04-09-2026 12:15 9,1 80,3 0 1,7 145 743,1 1005,7
49 Yerbas Buenas 2 04-09-2026 12:00 8,5 80,5 0 2 153 741,9 1006,1
48 Yerbas Buenas 2 04-09-2026 11:45 8 83,1 0 2 147 724,4 1006,1
47 Yerbas Buenas 2 04-09-2026 11:30 7,5 83,1 0 2 154 744,4 1006,2
46 Yerbas Buenas 2 04-09-2026 11:15 7,1 86,1 0 2 161 354,4 1006,2
45 Yerbas Buenas 2 04-09-2026 11:00 6 86,5 0 1,7 161 498,1 1006,4
44 Yerbas Buenas 2 04-09-2026 10:45 5,1 88,4 0 2 181 391,9 1006,5
43 Yerbas Buenas 2 04-09-2026 10:30 4,2 91,5 0 1,7 199 253,1 1006,5
42 Yerbas Buenas 2 04-09-2026 10:15 3,6 94 0 2 192 230,6 1006,7
41 Yerbas Buenas 2 04-09-2026 10:00 3,5 93,8 0 2,3 206 158,1 1006,8
40 Yerbas Buenas 2 04-09-2026 09:45 3,5 94,1 0 2 208 139,4 1006,6
39 Yerbas Buenas 2 04-09-2026 09:30 3,4 94,5 0 1,7 211 134,4 1006,5
38 Yerbas Buenas 2 04-09-2026 09:15 3,3 94,7 0 1,7 219 104,4 1006,6
37 Yerbas Buenas 2 04-09-2026 09:00 3,5 94,9 0 1,7 183 94,4 1006,5
36 Yerbas Buenas 2 04-09-2026 08:45 3,3 94,1 0 2 185 79,4 1006,5
35 Yerbas Buenas 2 04-09-2026 08:30 3,1 94,2 0 2 183 74,4 1006,4
34 Yerbas Buenas 2 04-09-2026 08:15 3,3 94,2 0 2,3 191 49,4 1006,4
33 Yerbas Buenas 2 04-09-2026 08:00 3,3 94,2 0 2 192 39,4 1006,4
32 Yerbas Buenas 2 04-09-2026 07:45 3,2 93,9 0 1,7 188 29,4 1006,2
31 Yerbas Buenas 2 04-09-2026 07:30 3 94,5 0 1 202 19,4 1006,2
30 Yerbas Buenas 2 04-09-2026 07:15 2,8 94,8 0 1 198 6,9 1006
29 Yerbas Buenas 2 04-09-2026 07:00 2,9 94,2 0 1 199 3,1 1006
28 Yerbas Buenas 2 04-09-2026 06:45 3,2 93,4 0 1,3 204 0,6 1005,9
27 Yerbas Buenas 2 04-09-2026 06:30 3,2 93,4 0 1,3 198 0,6 1005,9
26 Yerbas Buenas 2 04-09-2026 06:15 3,2 93,1 0 1,3 197 0,6 1005,8
25 Yerbas Buenas 2 04-09-2026 06:00 3,3 92,7 0 1,3 194 0,6 1005,7
24 Yerbas Buenas 2 04-09-2026 05:45 3,4 92,7 0 1,3 199 0,6 1005,7
23 Yerbas Buenas 2 04-09-2026 05:30 3,6 92,1 0 1,7 202 0,6 1005,7
22 Yerbas Buenas 2 04-09-2026 05:15 3,7 91,6 0 1,7 204 0,6 1005,7
21 Yerbas Buenas 2 04-09-2026 05:00 3,8 91,5 0 1,3 219 0,6 1005,7
20 Yerbas Buenas 2 04-09-2026 04:45 3,9 90,9 0 1 222 0,6 1005,6
19 Yerbas Buenas 2 04-09-2026 04:30 4,1 90,4 0 1 212 0,6 1005,6
18 Yerbas Buenas 2 04-09-2026 04:15 4,3 89,9 0 1,3 212 0,6 1005,6
17 Yerbas Buenas 2 04-09-2026 04:00 4,6 89,2 0 1,7 204 0,6 1005,6
16 Yerbas Buenas 2 04-09-2026 03:45 4,6 89,3 0 1,3 209 0,6 1005,6
15 Yerbas Buenas 2 04-09-2026 03:30 4,8 88,7 0 1,3 209 0,6 1005,5
14 Yerbas Buenas 2 04-09-2026 03:15 5,1 88,3 0 1,3 205 0,6 1005,7
13 Yerbas Buenas 2 04-09-2026 03:00 5,4 87,5 0 1,3 208 0,6 1005,8
12 Yerbas Buenas 2 04-09-2026 02:45 5,6 87,1 0 1 215 0,6 1006
11 Yerbas Buenas 2 04-09-2026 02:30 5,8 86,7 0 1 215 0,6 1005,9
10 Yerbas Buenas 2 04-09-2026 02:15 6 86,4 0 0,7 212 0,6 1005,9
9 Yerbas Buenas 2 04-09-2026 02:00 6,1 86,6 0 0,3 209 0,6 1006
8 Yerbas Buenas 2 04-09-2026 01:45 6,4 86,5 0 0,7 223 0,6 1006
7 Yerbas Buenas 2 04-09-2026 01:30 6,5 86,4 0 0,7 225 0,6 1005,9
6 Yerbas Buenas 2 04-09-2026 01:15 6,7 86,2 0 0,7 220 0,6 1006
5 Yerbas Buenas 2 04-09-2026 01:00 7 85,7 0 1 223 0,6 1006
4 Yerbas Buenas 2 04-09-2026 00:45 7,1 85,5 0 0,7 220 0,6 1006
3 Yerbas Buenas 2 04-09-2026 00:30 7,4 84,7 0 0,7 223 0,6 1006,1
2 Yerbas Buenas 2 04-09-2026 00:15 7,6 84,4 0 0,7 230 0,6 1006,2
1 Yerbas Buenas 2 04-09-2026 00:00 7,8 83,9 0 1 233 0,6 1006,2